createdAt,value
2018-05-17T00:02:16.622Z,97152
2018-05-17T00:04:44.787Z,97149
2018-05-17T00:07:12.957Z,97150
2018-05-17T00:09:41.136Z,97151
2018-05-17T00:12:09.325Z,97152
2018-05-17T00:14:37.501Z,97147
2018-05-17T00:17:05.669Z,97147
2018-05-17T00:19:33.851Z,97151
2018-05-17T00:22:02.026Z,97153
2018-05-17T00:24:30.192Z,97152
2018-05-17T00:26:58.377Z,97155
2018-05-17T00:29:26.550Z,97155
2018-05-17T00:31:54.725Z,97154
2018-05-17T00:34:22.886Z,97151
2018-05-17T00:36:51.057Z,97153
2018-05-17T00:39:19.260Z,97151
2018-05-17T00:41:47.426Z,97151
2018-05-17T00:44:15.599Z,97149
2018-05-17T00:46:43.777Z,97163
2018-05-17T00:49:11.949Z,97156
2018-05-17T00:51:40.137Z,97155
2018-05-17T00:54:08.302Z,97153
2018-05-17T00:56:36.478Z,97150
2018-05-17T00:59:04.652Z,97146
2018-05-17T01:01:32.829Z,97141
2018-05-17T01:04:00.997Z,97141
2018-05-17T01:06:29.175Z,97140
2018-05-17T01:08:57.352Z,97133
2018-05-17T01:11:25.530Z,97130
2018-05-17T01:13:53.712Z,97137
2018-05-17T01:16:21.882Z,97131
2018-05-17T01:18:50.053Z,97133
2018-05-17T01:21:18.221Z,97135
2018-05-17T01:23:46.386Z,97138
2018-05-17T01:26:14.572Z,97138
2018-05-17T01:28:42.749Z,97138
2018-05-17T01:31:10.916Z,97137
2018-05-17T01:33:39.098Z,97133
2018-05-17T01:36:07.273Z,97138
2018-05-17T01:38:35.448Z,97136
2018-05-17T01:41:03.621Z,97133
2018-05-17T01:43:31.801Z,97137
2018-05-17T01:45:59.969Z,97131
2018-05-17T01:48:28.137Z,97131
2018-05-17T01:50:56.305Z,97136
2018-05-17T01:53:24.481Z,97130
2018-05-17T01:55:52.658Z,97128
2018-05-17T01:58:20.836Z,97135
2018-05-17T02:00:49.023Z,97132
2018-05-17T02:03:17.184Z,97129
2018-05-17T02:05:45.353Z,97126
2018-05-17T02:08:13.530Z,97125
2018-05-17T02:10:41.740Z,97131
2018-05-17T02:13:09.918Z,97135
2018-05-17T02:15:38.086Z,97134
2018-05-17T02:18:06.339Z,97135
2018-05-17T02:20:34.504Z,97135
2018-05-17T02:23:02.679Z,97124
2018-05-17T02:25:30.850Z,97130
2018-05-17T02:27:59.021Z,97117
2018-05-17T02:30:27.190Z,97117
2018-05-17T02:32:55.358Z,97117
2018-05-17T02:35:23.533Z,97115
2018-05-17T02:37:51.706Z,97118
2018-05-17T02:40:19.891Z,97119
2018-05-17T02:42:48.081Z,97125
2018-05-17T02:45:16.256Z,97132
2018-05-17T02:47:44.437Z,97127
2018-05-17T02:50:12.609Z,97131
2018-05-17T02:52:40.789Z,97129
2018-05-17T02:55:08.980Z,97129
2018-05-17T02:57:37.154Z,97134
2018-05-17T03:00:05.321Z,97134
2018-05-17T03:02:33.487Z,97134
2018-05-17T03:05:01.658Z,97139
2018-05-17T03:07:29.826Z,97140
2018-05-17T03:09:57.992Z,97137
2018-05-17T03:12:26.158Z,97137
2018-05-17T03:14:54.329Z,97140
2018-05-17T03:17:22.509Z,97142
2018-05-17T03:19:50.675Z,97140
2018-05-17T03:22:18.866Z,97144
2018-05-17T03:24:47.041Z,97147
2018-05-17T03:27:15.201Z,97147
2018-05-17T03:29:43.380Z,97148
2018-05-17T03:32:11.545Z,97147
2018-05-17T03:34:39.721Z,97151
2018-05-17T03:37:07.893Z,97154
2018-05-17T03:39:36.069Z,97159
2018-05-17T03:42:04.278Z,97153
2018-05-17T03:44:32.441Z,97149
2018-05-17T03:47:00.614Z,97149
2018-05-17T03:49:28.789Z,97150
2018-05-17T03:51:56.965Z,97155
2018-05-17T03:54:25.120Z,97157
2018-05-17T03:56:53.281Z,97161
2018-05-17T03:59:22.225Z,97163
2018-05-17T04:02:08.339Z,97164
2018-05-17T04:04:55.233Z,97167
2018-05-17T04:07:23.413Z,97161
2018-05-17T04:09:51.578Z,97163
2018-05-17T04:12:19.737Z,97160
2018-05-17T04:14:47.907Z,97166
2018-05-17T04:17:16.078Z,97161
2018-05-17T04:19:44.253Z,97160
2018-05-17T04:22:12.422Z,97164
2018-05-17T04:24:40.600Z,97162
2018-05-17T04:27:08.771Z,97160
2018-05-17T04:29:36.937Z,97165
2018-05-17T04:32:05.110Z,97171
2018-05-17T04:34:34.068Z,97170
2018-05-17T04:37:02.241Z,97166
2018-05-17T04:39:30.413Z,97169
2018-05-17T04:41:58.589Z,97174
2018-05-17T04:44:26.785Z,97176
2018-05-17T04:46:55.725Z,97180
2018-05-17T04:49:23.909Z,97181
2018-05-17T04:51:52.078Z,97184
2018-05-17T04:54:20.250Z,97177
2018-05-17T04:56:48.421Z,97176
2018-05-17T04:59:16.599Z,97175
2018-05-17T05:01:44.805Z,97179
2018-05-17T05:04:12.982Z,97181
2018-05-17T05:06:41.148Z,97185
2018-05-17T05:09:10.217Z,97185
2018-05-17T05:11:38.400Z,97179
2018-05-17T05:14:06.572Z,97177
2018-05-17T05:16:34.738Z,97180
2018-05-17T05:19:02.922Z,97171
2018-05-17T05:21:31.088Z,97170
2018-05-17T05:23:59.260Z,97172
2018-05-17T05:26:27.438Z,97174
2018-05-17T05:28:55.704Z,97168
2018-05-17T05:31:23.878Z,97169
2018-05-17T05:33:52.037Z,97167
2018-05-17T05:36:20.231Z,97168
2018-05-17T05:38:48.396Z,97168
2018-05-17T05:41:16.574Z,97167
2018-05-17T05:43:44.860Z,97163
2018-05-17T05:46:13.030Z,97170
2018-05-17T05:48:41.224Z,97170
2018-05-17T05:51:09.429Z,97174
2018-05-17T05:53:37.618Z,97166
2018-05-17T05:56:06.577Z,97165
2018-05-17T05:58:34.771Z,97165
2018-05-17T06:01:03.139Z,97162
2018-05-17T06:03:31.308Z,97167
2018-05-17T06:05:59.484Z,97169
2018-05-17T06:08:27.763Z,97177
2018-05-17T06:10:56.637Z,97181
2018-05-17T06:13:24.801Z,97181
2018-05-17T06:15:52.982Z,97178
2018-05-17T06:18:21.174Z,97174
2018-05-17T06:20:49.360Z,97180
2018-05-17T06:23:17.540Z,97179
2018-05-17T06:25:46.568Z,97176
2018-05-17T06:28:15.010Z,97177
2018-05-17T06:30:43.217Z,97180
2018-05-17T06:33:11.389Z,97181
2018-05-17T06:35:39.564Z,97182
2018-05-17T06:38:07.865Z,97186
2018-05-17T06:40:36.041Z,97180
2018-05-17T06:43:04.215Z,97182
2018-05-17T06:45:32.397Z,97181
2018-05-17T06:48:00.565Z,97187
2018-05-17T06:50:29.486Z,97184
2018-05-17T06:52:57.780Z,97185
2018-05-17T06:55:25.960Z,97183
2018-05-17T06:57:54.983Z,97181
2018-05-17T07:00:23.162Z,97187
2018-05-17T07:02:51.351Z,97182
2018-05-17T07:05:19.584Z,97180
2018-05-17T07:07:48.530Z,97182
2018-05-17T07:10:16.705Z,97187
2018-05-17T07:12:44.892Z,97184
2018-05-17T07:15:13.065Z,97186
2018-05-17T07:17:41.266Z,97183
2018-05-17T07:20:09.469Z,97181
2018-05-17T07:22:37.657Z,97185
2018-05-17T07:25:05.838Z,97179
2018-05-17T07:27:34.270Z,97175
2018-05-17T07:30:03.213Z,97182
2018-05-17T07:32:31.409Z,97176
2018-05-17T07:34:59.572Z,97184
2018-05-17T07:37:27.755Z,97183
2018-05-17T07:39:55.925Z,97182
2018-05-17T07:42:24.091Z,97175
2018-05-17T07:44:52.265Z,97178
2018-05-17T07:47:20.510Z,97171
2018-05-17T07:49:48.634Z,97177
2018-05-17T07:52:16.809Z,97170
2018-05-17T07:54:45.011Z,97174
2018-05-17T07:57:14.024Z,97175
2018-05-17T07:59:43.674Z,97174
2018-05-17T08:02:11.851Z,97172
2018-05-17T08:04:40.026Z,97170
2018-05-17T08:07:08.553Z,97172
2018-05-17T08:09:37.741Z,97170
2018-05-17T08:12:05.921Z,97171
2018-05-17T08:14:34.877Z,97172
2018-05-17T08:17:03.048Z,97168
2018-05-17T08:19:31.222Z,97172
2018-05-17T08:21:59.401Z,97169
2018-05-17T08:24:27.573Z,97172
2018-05-17T08:26:55.989Z,97174
2018-05-17T08:29:24.161Z,97172
2018-05-17T08:31:52.341Z,97174
2018-05-17T08:34:21.288Z,97168
2018-05-17T08:36:49.559Z,97175
2018-05-17T08:39:17.650Z,97173
2018-05-17T08:41:45.841Z,97177
2018-05-17T08:44:14.019Z,97177
2018-05-17T08:46:42.202Z,97180
2018-05-17T08:49:10.377Z,97178
2018-05-17T08:51:38.561Z,97183
2018-05-17T08:54:07.500Z,97183
2018-05-17T08:56:35.675Z,97176
2018-05-17T08:59:04.226Z,97173
2018-05-17T09:01:33.156Z,97176
2018-05-17T09:04:01.332Z,97176
2018-05-17T09:06:29.505Z,97176
2018-05-17T09:08:57.687Z,97177
2018-05-17T09:11:25.872Z,97172
2018-05-17T09:13:54.076Z,97172
2018-05-17T09:16:23.015Z,97174
2018-05-17T09:18:51.197Z,97177
2018-05-17T09:21:19.372Z,97177
2018-05-17T09:23:47.539Z,97180
2018-05-17T09:26:15.718Z,97173
2018-05-17T09:28:43.885Z,97178
2018-05-17T09:31:12.055Z,97172
2018-05-17T09:33:40.220Z,97175
2018-05-17T09:36:08.397Z,97174
2018-05-17T09:38:36.572Z,97171
2018-05-17T09:41:04.736Z,97170
2018-05-17T09:43:32.941Z,97173
2018-05-17T09:46:01.118Z,97176
2018-05-17T09:48:29.285Z,97178
2018-05-17T09:50:57.450Z,97176
2018-05-17T09:53:25.625Z,97174
2018-05-17T09:55:54.072Z,97176
2018-05-17T09:58:23.013Z,97179
2018-05-17T10:00:51.177Z,97175
2018-05-17T10:03:19.367Z,97180
2018-05-17T10:05:47.543Z,97182
2018-05-17T10:08:15.718Z,97177
2018-05-17T10:10:43.880Z,97177
2018-05-17T10:13:12.820Z,97169
2018-05-17T10:15:41.758Z,97171
2018-05-17T10:18:09.931Z,97163
2018-05-17T10:20:38.099Z,97165
2018-05-17T10:23:06.370Z,97161
2018-05-17T10:25:34.469Z,97160
2018-05-17T10:28:02.641Z,97160
2018-05-17T10:30:30.884Z,97149
2018-05-17T10:32:59.839Z,97154
2018-05-17T10:35:28.034Z,97157
2018-05-17T10:37:56.981Z,97151
2018-05-17T10:40:25.153Z,97142
2018-05-17T10:42:53.328Z,97151
2018-05-17T10:45:21.532Z,97144
2018-05-17T10:47:49.705Z,97138
2018-05-17T10:50:17.960Z,97146
2018-05-17T10:52:46.130Z,97147
2018-05-17T10:55:14.312Z,97147
2018-05-17T10:57:42.473Z,97145
2018-05-17T11:00:10.645Z,97145
2018-05-17T11:02:38.910Z,97143
2018-05-17T11:05:06.997Z,97146
2018-05-17T11:07:35.165Z,97138
2018-05-17T11:10:03.339Z,97140
2018-05-17T11:12:31.502Z,97134
2018-05-17T11:14:59.685Z,97134
2018-05-17T11:17:27.841Z,97137
2018-05-17T11:19:56.016Z,97132
2018-05-17T11:22:24.220Z,97145
2018-05-17T11:24:52.389Z,97136
2018-05-17T11:27:20.573Z,97133
2018-05-17T11:29:48.738Z,97131
2018-05-17T11:32:16.929Z,97132
2018-05-17T11:34:45.093Z,97139
2018-05-17T11:37:13.268Z,97140
2018-05-17T11:39:41.432Z,97146
2018-05-17T11:42:09.603Z,97145
2018-05-17T11:44:37.762Z,97141
2018-05-17T11:47:05.929Z,97143
2018-05-17T11:49:34.876Z,97141
2018-05-17T11:52:03.049Z,97145
2018-05-17T11:54:31.228Z,97146
2018-05-17T11:56:59.395Z,97147
2018-05-17T11:59:27.563Z,97148
2018-05-17T12:01:55.729Z,97151
2018-05-17T12:04:23.906Z,97148
2018-05-17T12:06:52.068Z,97151
2018-05-17T12:09:20.262Z,97148
2018-05-17T12:11:48.435Z,97150
2018-05-17T12:14:16.611Z,97140
2018-05-17T12:16:44.787Z,97139
2018-05-17T12:19:12.971Z,97139
2018-05-17T12:21:41.142Z,97138
2018-05-17T12:24:09.318Z,97134
2018-05-17T12:26:37.528Z,97143
2018-05-17T12:29:06.459Z,97137
2018-05-17T12:31:34.682Z,97142
2018-05-17T12:34:02.808Z,97142
2018-05-17T12:36:30.981Z,97139
2018-05-17T12:38:59.169Z,97142
2018-05-17T12:41:27.345Z,97143
2018-05-17T12:43:55.514Z,97143
2018-05-17T12:46:23.690Z,97143
2018-05-17T12:48:51.861Z,97143
2018-05-17T12:51:20.044Z,97137
2018-05-17T12:53:48.209Z,97134
2018-05-17T12:56:16.413Z,97130
2018-05-17T12:58:44.718Z,97131
2018-05-17T13:01:12.836Z,97127
2018-05-17T13:03:41.011Z,97125
2018-05-17T13:06:09.188Z,97126
2018-05-17T13:08:37.357Z,97117
2018-05-17T13:11:05.539Z,97121
2018-05-17T13:13:33.702Z,97113
2018-05-17T13:16:01.895Z,97114
2018-05-17T13:18:30.095Z,97111
2018-05-17T13:20:58.264Z,97104
2018-05-17T13:23:26.442Z,97111
2018-05-17T13:25:56.157Z,97101
2018-05-17T13:28:24.331Z,97106
2018-05-17T13:30:52.513Z,97099
2018-05-17T13:33:21.461Z,97098
2018-05-17T13:35:49.629Z,97102
2018-05-17T13:38:17.797Z,97102
2018-05-17T13:40:45.976Z,97096
2018-05-17T13:43:14.190Z,97096
2018-05-17T13:45:42.356Z,97094
2018-05-17T13:48:10.527Z,97090
2018-05-17T13:50:38.693Z,97091
2018-05-17T13:53:06.931Z,97086
2018-05-17T13:55:35.102Z,97084
2018-05-17T13:58:03.305Z,97089
2018-05-17T14:00:31.485Z,97085
2018-05-17T14:02:59.657Z,97087
2018-05-17T14:05:27.835Z,97087
2018-05-17T14:07:56.018Z,97083
2018-05-17T14:10:24.204Z,97082
2018-05-17T14:12:52.370Z,97079
2018-05-17T14:15:20.669Z,97082
2018-05-17T14:17:48.726Z,97085
2018-05-17T14:20:16.895Z,97089
2018-05-17T14:22:45.061Z,97097
2018-05-17T14:25:13.245Z,97097
2018-05-17T14:27:41.425Z,97105
2018-05-17T14:30:09.591Z,97105
2018-05-17T14:32:37.801Z,97105
2018-05-17T14:35:06.741Z,97106
2018-05-17T14:37:34.919Z,97102
2018-05-17T14:40:03.083Z,97107
2018-05-17T14:42:31.247Z,97105
2018-05-17T14:44:59.430Z,97106
2018-05-17T14:47:27.612Z,97109
2018-05-17T14:49:55.793Z,97110
2018-05-17T14:52:23.956Z,97113
2018-05-17T14:54:52.208Z,97110
2018-05-17T14:57:20.304Z,97118
2018-05-17T14:59:48.473Z,97116
2018-05-17T15:02:16.731Z,97111
2018-05-17T15:04:44.898Z,97117
2018-05-17T15:07:13.829Z,97116
2018-05-17T15:09:42.004Z,97105
2018-05-17T15:12:10.170Z,97121
2018-05-17T15:14:38.353Z,97121
2018-05-17T15:17:07.285Z,97120
2018-05-17T15:19:36.245Z,97123
2018-05-17T15:22:04.417Z,97126
2018-05-17T15:24:32.680Z,97126
2018-05-17T15:27:01.590Z,97126
2018-05-17T15:29:29.781Z,97133
2018-05-17T15:31:57.945Z,97133
2018-05-17T15:34:26.116Z,97133
2018-05-17T15:36:54.287Z,97134
2018-05-17T15:39:22.452Z,97129
2018-05-17T15:41:50.632Z,97134
2018-05-17T15:44:18.793Z,97137
2018-05-17T15:46:46.956Z,97135
2018-05-17T15:49:15.117Z,97133
2018-05-17T15:51:43.300Z,97134
2018-05-17T15:54:11.473Z,97138
2018-05-17T15:56:39.645Z,97135
2018-05-17T15:59:07.817Z,97141
2018-05-17T16:01:35.985Z,97142
2018-05-17T16:04:04.926Z,97137
2018-05-17T16:06:33.114Z,97144
2018-05-17T16:09:01.290Z,97138
2018-05-17T16:11:30.230Z,97143
2018-05-17T16:13:58.396Z,97149
2018-05-17T16:16:26.665Z,97149
2018-05-17T16:18:55.676Z,97153
2018-05-17T16:21:23.877Z,97157
2018-05-17T16:23:52.128Z,97161
2018-05-17T16:26:20.350Z,97163
2018-05-17T16:28:48.565Z,97165
2018-05-17T16:31:17.604Z,97164
2018-05-17T16:33:46.882Z,97166
2018-05-17T16:36:15.076Z,97172
2018-05-17T16:38:43.270Z,97180
2018-05-17T16:41:11.565Z,97182
2018-05-17T16:43:39.746Z,97181
2018-05-17T16:46:08.700Z,97185
2018-05-17T16:48:37.129Z,97187
2018-05-17T16:51:05.245Z,97190
2018-05-17T16:53:33.412Z,97191
2018-05-17T16:56:01.575Z,97188
2018-05-17T16:58:29.809Z,97191
2018-05-17T17:00:57.978Z,97187
2018-05-17T17:03:26.153Z,97188
2018-05-17T17:05:54.319Z,97197
2018-05-17T17:08:22.504Z,97203
2018-05-17T17:10:50.673Z,97201
2018-05-17T17:13:18.854Z,97205
2018-05-17T17:15:47.029Z,97209
2018-05-17T17:18:15.980Z,97207
2018-05-17T17:20:44.318Z,97210
2018-05-17T17:23:13.263Z,97217
2018-05-17T17:25:41.439Z,97221
2018-05-17T17:28:09.608Z,97225
2018-05-17T17:30:37.789Z,97219
2018-05-17T17:33:05.967Z,97221
2018-05-17T17:35:34.189Z,97222
2018-05-17T17:38:03.125Z,97234
2018-05-17T17:40:36.972Z,97240
2018-05-17T17:43:05.282Z,97241
2018-05-17T17:45:33.696Z,97245
2018-05-17T17:48:01.861Z,97252
2018-05-17T17:50:30.052Z,97257
2018-05-17T17:52:58.554Z,97257
2018-05-17T17:55:28.167Z,97257
2018-05-17T17:57:56.409Z,97261
2018-05-17T18:00:24.643Z,97258
2018-05-17T18:02:52.831Z,97267
2018-05-17T18:05:21.021Z,97274
2018-05-17T18:07:49.201Z,97273
2018-05-17T18:10:17.414Z,97272
2018-05-17T18:12:45.595Z,97277
2018-05-17T18:15:14.535Z,97276
2018-05-17T18:17:42.732Z,97275
2018-05-17T18:20:10.900Z,97276
2018-05-17T18:22:39.068Z,97276
2018-05-17T18:25:07.324Z,97279
2018-05-17T18:27:35.510Z,97290
2018-05-17T18:30:07.572Z,97292
2018-05-17T18:32:35.897Z,97294
2018-05-17T18:35:05.308Z,97295
2018-05-17T18:37:34.256Z,97300
2018-05-17T18:40:02.441Z,97299
2018-05-17T18:42:31.017Z,97302
2018-05-17T18:45:02.947Z,97301
2018-05-17T18:47:31.123Z,97305
2018-05-17T18:49:59.305Z,97303
2018-05-17T18:52:27.748Z,97303
2018-05-17T18:54:59.544Z,97305
2018-05-17T18:57:27.734Z,97309
2018-05-17T18:59:55.913Z,97307
2018-05-17T19:02:27.265Z,97309
2018-05-17T19:04:57.971Z,97318
2018-05-17T19:07:31.656Z,97320
2018-05-17T19:10:05.827Z,97328
2018-05-17T19:12:33.992Z,97330
2018-05-17T19:15:02.199Z,97333
2018-05-17T19:17:35.260Z,97339
2018-05-17T19:20:03.452Z,97342
2018-05-17T19:22:34.277Z,97344
2018-05-17T19:25:03.257Z,97344
2018-05-17T19:27:33.076Z,97348
2018-05-17T19:30:02.068Z,97349
2018-05-17T19:32:30.251Z,97359
2018-05-17T19:34:59.232Z,97358
2018-05-17T19:37:31.380Z,97361
2018-05-17T19:40:05.043Z,97365
2018-05-17T19:42:36.976Z,97363
2018-05-17T19:45:08.008Z,97365
2018-05-17T19:47:38.195Z,97365
2018-05-17T19:50:10.721Z,97364
2018-05-17T19:52:40.828Z,97364
2018-05-17T19:55:12.996Z,97368
2018-05-17T19:57:42.942Z,97369
2018-05-17T20:00:11.234Z,97370
2018-05-17T20:02:40.186Z,97373
2018-05-17T20:05:08.488Z,97370
2018-05-17T20:07:36.678Z,97372
2018-05-17T20:10:04.864Z,97371
2018-05-17T20:12:33.816Z,97376
2018-05-17T20:15:01.998Z,97378
2018-05-17T20:17:30.171Z,97373
2018-05-17T20:19:58.366Z,97376
2018-05-17T20:22:26.541Z,97382
2018-05-17T20:24:54.728Z,97393
2018-05-17T20:27:23.692Z,97388
2018-05-17T20:29:51.886Z,97384
2018-05-17T20:32:20.838Z,97383
2018-05-17T20:34:49.012Z,97387
2018-05-17T20:37:17.179Z,97385
2018-05-17T20:39:45.359Z,97393
2018-05-17T20:42:13.531Z,97388
2018-05-17T20:44:41.707Z,97390
2018-05-17T20:47:09.889Z,97388
2018-05-17T20:49:38.089Z,97390
2018-05-17T20:52:06.302Z,97386
2018-05-17T20:54:34.469Z,97387
2018-05-17T20:57:03.423Z,97386
2018-05-17T20:59:31.597Z,97391
2018-05-17T21:01:59.777Z,97391
2018-05-17T21:04:27.949Z,97389
2018-05-17T21:06:56.119Z,97389
2018-05-17T21:09:24.295Z,97391
2018-05-17T21:11:52.476Z,97391
2018-05-17T21:14:20.662Z,97392
2018-05-17T21:16:48.847Z,97389
2018-05-17T21:19:17.785Z,97387
2018-05-17T21:21:45.959Z,97389
2018-05-17T21:24:14.143Z,97397
2018-05-17T21:26:42.314Z,97384
2018-05-17T21:29:10.500Z,97392
2018-05-17T21:31:38.698Z,97396
2018-05-17T21:34:08.379Z,97398
2018-05-17T21:36:36.557Z,97398
2018-05-17T21:39:04.779Z,97397
2018-05-17T21:41:33.726Z,97398
2018-05-17T21:44:01.909Z,97399
2018-05-17T21:46:30.078Z,97404
2018-05-17T21:48:58.246Z,97412
2018-05-17T21:51:26.430Z,97413
2018-05-17T21:53:54.600Z,97409
2018-05-17T21:56:22.778Z,97413
2018-05-17T21:58:50.959Z,97417
2018-05-17T22:01:19.128Z,97414
2018-05-17T22:03:47.365Z,97419
2018-05-17T22:06:15.551Z,97422
2018-05-17T22:08:43.748Z,97426
2018-05-17T22:11:11.918Z,97429
2018-05-17T22:13:40.099Z,97432
2018-05-17T22:16:08.285Z,97443
2018-05-17T22:18:36.455Z,97443
2018-05-17T22:21:04.666Z,97440
2018-05-17T22:23:33.608Z,97443
2018-05-17T22:26:01.778Z,97442
2018-05-17T22:28:29.966Z,97443
2018-05-17T22:30:58.582Z,97441
2018-05-17T22:33:27.529Z,97446
2018-05-17T22:35:55.791Z,97435
2018-05-17T22:38:23.880Z,97439
2018-05-17T22:40:52.040Z,97442
2018-05-17T22:43:20.214Z,97440
2018-05-17T22:45:48.384Z,97435
2018-05-17T22:48:18.212Z,97436
2018-05-17T22:50:46.397Z,97435
2018-05-17T22:53:14.624Z,97436
2018-05-17T22:55:43.522Z,97441
2018-05-17T22:58:37.388Z,97442
2018-05-17T23:01:06.335Z,97440
2018-05-17T23:03:34.513Z,97434
2018-05-17T23:06:02.681Z,97439
2018-05-17T23:08:30.975Z,97434
2018-05-17T23:10:59.116Z,97434
2018-05-17T23:13:27.286Z,97436
2018-05-17T23:15:55.470Z,97432
2018-05-17T23:18:23.640Z,97430
2018-05-17T23:20:51.834Z,97426
2018-05-17T23:23:20.037Z,97420
2018-05-17T23:25:48.213Z,97421
2018-05-17T23:28:16.397Z,97425
2018-05-17T23:30:45.337Z,97422
2018-05-17T23:33:13.532Z,97416
2018-05-17T23:35:41.705Z,97421
2018-05-17T23:38:09.875Z,97417
2018-05-17T23:41:16.533Z,97418
2018-05-17T23:43:44.707Z,97416
2018-05-17T23:46:12.868Z,97413
2018-05-17T23:48:41.038Z,97415
2018-05-17T23:51:09.210Z,97417
2018-05-17T23:53:37.387Z,97415
2018-05-17T23:56:05.550Z,97417
2018-05-17T23:58:33.741Z,97418
